Latest Weather Observations for Lake Grace

IDW60801

Issued at 6:04 pm WST Saturday 1 October 2016 (issued every 30 minutes, with the page automatically refreshed every 10 minutes)

About weather observations | Map of weather stations | Latest weather observations for WA | Other Formats
Station Details ID: 010911 Name: LAKE GRACE Lat: -33.10 Lon: 118.46 Height: 286.0 m
Data from the previous 72 hours. | See also: Recent months at Lake Grace
Date/Time
WST
Temp
°C
App
Temp
°C
Dew
Point
°C
Rel
Hum
%
Delta-T
°C
Wind Press
QNH
hPa
Press
MSL
hPa
Rain since
9am
mm
Dir  Spd
km/h
Gust
km/h
Spd
kts
Gust
kts
01/06:00pm 8.5 2.2 1.6 62 2.9 W 24 37 13 20 1002.9 1002.3 -
01/05:30pm 9.1 0.2 0.6 55 3.5 WSW 37 63 20 34 1002.9 1002.3 -
01/05:02pm 10.4 3.2 1.0 52 3.9 W 28 46 15 25 1001.9 1001.4 -
01/05:00pm 10.5 3.4 1.3 53 3.9 W 28 43 15 23 1001.9 1001.4 -
01/04:44pm 10.4 3.1 2.7 59 3.4 W 30 48 16 26 1001.7 1001.1 -
01/04:30pm 10.3 3.4 2.4 58 3.4 WSW 28 44 15 24 1001.7 1001.1 -
01/04:00pm 7.8 0.9 4.4 79 1.5 WSW 30 48 16 26 1001.8 1001.2 -
01/03:40pm 6.8 -2.7 1.7 70 2.1 WSW 41 69 22 37 1002.3 1001.7 -
01/03:31pm 12.5 4.4 1.2 46 4.9 W 33 54 18 29 1001.1 1000.5 -
01/03:30pm 12.4 4.6 1.4 47 4.8 W 32 48 17 26 1001.1 1000.5 -
01/03:00pm 11.4 2.5 0.5 47 4.6 W 37 61 20 33 1000.7 1000.1 -
01/02:30pm 9.2 0.8 3.8 69 2.4 WSW 37 63 20 34 1000.9 1000.3 -
01/02:02pm 12.5 3.9 0.3 43 5.1 W 35 70 19 38 1000.0 999.4 -
01/02:00pm 12.6 4.5 1.0 45 5.0 W 33 52 18 28 1000.0 999.4 -
01/01:51pm 11.3 2.0 2.9 56 3.7 W 41 63 22 34 1000.1 999.5 -
01/01:30pm 10.6 2.8 4.7 67 2.7 WSW 35 65 19 35 1000.2 999.6 -
01/01:05pm 10.6 1.2 2.4 57 3.6 W 41 80 22 43 999.9 999.3 -
01/01:01pm 14.3 5.1 1.2 41 5.7 W 39 80 21 43 999.3 998.7 -
01/01:00pm 14.7 5.5 1.3 40 5.9 W 39 57 21 31 998.9 998.3 -
01/12:30pm 14.5 4.7 -0.4 36 6.3 W 41 59 22 32 998.7 998.0 -
01/12:09pm 13.9 5.8 1.2 42 5.5 W 33 52 18 28 998.9 998.3 -
01/11:30am 11.7 3.9 4.7 62 3.2 WSW 35 57 19 31 999.3 998.7 0.0
01/11:00am 12.6 3.6 2.7 51 4.4 W 39 67 21 36 999.1 998.5 0.0
01/10:30am 12.5 4.5 4.0 56 3.9 W 35 56 19 30 998.8 998.1 0.0
01/10:00am 12.1 4.1 5.9 66 3.0 W 37 57 20 31 998.7 998.0 0.0
01/09:30am 10.5 3.1 6.6 77 1.9 W 35 57 19 31 998.9 998.3 0.0
01/09:00am 10.6 3.8 7.1 79 1.7 W 32 50 17 27 998.4 997.8 2.2
01/08:30am 9.7 2.5 7.5 86 1.1 W 35 61 19 33 998.2 997.6 2.0
01/08:20am 10.3 2.2 7.0 80 1.6 WNW 39 61 21 33 998.3 997.7 0.8
01/08:19am 10.7 2.6 7.2 79 1.7 WNW 39 61 21 33 998.3 997.7 0.2
01/08:00am 12.9 6.7 9.5 80 1.8 NW 32 50 17 27 997.0 996.4 0.0
01/07:58am 12.6 6.4 9.2 80 1.7 NW 32 50 17 27 997.0 996.8 0.0
01/07:30am 11.6 5.7 9.2 85 1.2 NW 30 46 16 25 997.2 997.0 0.0
01/07:17am 11.6 5.3 8.8 83 1.4 NW 32 50 17 27 997.0 996.8 0.0
01/07:00am 11.7 5.3 8.7 82 1.5 NNW 32 46 17 25 997.3 997.1 0.0
01/06:43am 11.4 4.9 8.8 84 1.3 NNW 33 52 18 28 997.4 997.2 0.0
01/06:30am 11.1 5.5 8.8 86 1.2 NNW 28 44 15 24 997.7 997.5 0.0
01/06:00am 10.6 5.4 8.7 88 1.0 NNW 26 43 14 23 998.2 998.0 0.0
01/05:30am 10.7 5.6 9.1 90 0.8 NNW 26 37 14 20 998.2 998.0 0.0
01/05:00am 10.4 6.0 9.0 91 0.7 NNW 22 33 12 18 998.7 998.4 0.0
01/04:30am 10.1 5.6 8.7 91 0.7 NNW 22 30 12 16 999.5 999.3 0.0
01/04:00am 9.8 5.7 8.7 93 0.6 NNW 20 28 11 15 999.7 999.5 0.0
01/03:30am 9.4 5.3 8.5 94 0.4 NNW 20 28 11 15 1000.2 1000.0 0.0
01/03:00am 8.9 4.8 8.0 94 0.4 NNW 19 26 10 14 1000.6 1000.4 0.0
01/02:30am 8.5 4.3 7.6 94 0.4 NNW 19 24 10 13 1001.4 1001.2 0.0
01/02:00am 8.3 5.2 7.2 93 0.5 NNW 13 19 7 10 1001.8 1001.6 0.0
01/01:30am 8.8 5.4 7.6 92 0.6 NNW 15 20 8 11 1002.2 1001.9 0.0
01/01:00am 8.9 5.1 7.7 92 0.6 NNW 17 20 9 11 1002.4 1002.2 0.0
01/12:30am 9.1 5.6 7.4 89 0.8 NNW 15 20 8 11 1003.0 1002.8 0.0
01/12:00am 10.5 7.2 7.9 84 1.3 NW 15 24 8 13 1003.3 1003.1 0.0
 
Date/Time
WST
Temp
°C
App
Temp
°C
Dew
Point
°C
Rel
Hum
%
Delta-T
°C
Wind Press
QNH
hPa
Press
MSL
hPa
Rain since
9am
mm
Dir  Spd
km/h
Gust
km/h
Spd
kts
Gust
kts
30/11:30pm 10.5 7.2 8.1 85 1.2 NW 15 22 8 12 1003.5 1003.3 0.0
30/11:00pm 10.2 7.2 7.6 84 1.3 NW 13 20 7 11 1003.9 1003.7 0.0
30/10:30pm 10.5 7.5 7.7 83 1.4 NW 13 17 7 9 1004.3 1004.1 0.0
30/10:00pm 11.6 8.6 7.9 78 1.8 WNW 13 20 7 11 1004.8 1004.6 0.0
30/09:30pm 12.4 8.4 8.1 75 2.1 WNW 19 26 10 14 1005.1 1004.9 0.0
30/09:00pm 12.7 8.6 7.8 72 2.4 WNW 19 24 10 13 1004.9 1004.7 0.0
30/08:30pm 12.6 8.4 7.5 71 2.5 WNW 19 32 10 17 1004.8 1004.6 0.0
30/08:00pm 13.5 10.1 7.7 68 2.9 WNW 15 22 8 12 1004.8 1004.6 0.0
30/07:30pm 13.8 9.6 7.6 66 3.1 WNW 19 28 10 15 1004.8 1004.6 0.0
30/07:00pm 13.8 9.6 7.6 66 3.1 NW 19 32 10 17 1004.4 1004.2 0.0
30/06:30pm 14.3 9.6 7.8 65 3.3 WNW 22 35 12 19 1004.2 1004.0 0.0
30/06:00pm 15.0 10.2 7.5 61 3.8 WNW 22 32 12 17 1003.8 1003.6 0.0
30/05:30pm 16.1 10.0 6.8 54 4.6 WNW 28 43 15 23 1003.8 1003.6 0.0
30/05:16pm 16.2 9.7 6.6 53 4.8 WNW 30 48 16 26 1003.7 1003.5 0.0
30/05:00pm 16.5 10.4 6.6 52 5.0 W 28 41 15 22 1003.6 1003.4 0.0
30/04:41pm 16.8 9.8 6.0 49 5.3 WNW 32 50 17 27 1003.6 1003.4 0.0
30/04:30pm 16.9 9.4 6.1 49 5.3 WNW 35 52 19 28 1003.5 1003.3 0.0
30/04:00pm 17.5 10.5 6.7 49 5.5 WNW 33 52 18 28 1003.2 1003.0 0.0
30/03:41pm 17.8 11.0 6.7 48 5.6 WNW 32 56 17 30 1003.0 1002.8 0.0
30/03:30pm 17.5 11.4 9.9 61 4.1 WNW 32 46 17 25 1003.2 1003.0 0.0
30/03:00pm 15.2 9.1 9.8 70 2.9 WNW 32 50 17 27 1003.6 1003.4 0.0
30/02:30pm 16.9 11.0 9.1 60 4.1 WNW 30 48 16 26 1003.0 1002.8 0.0
30/02:28pm 16.8 10.9 9.0 60 4.1 WNW 30 48 16 26 1003.0 1002.8 0.0
30/02:00pm 17.2 10.9 8.9 58 4.4 WNW 32 41 17 22 1003.4 1003.2 0.0
30/01:30pm 17.3 10.2 7.9 54 4.8 WNW 35 50 19 27 1003.4 1003.2 0.0
30/01:02pm 17.5 10.7 7.5 52 5.1 WNW 33 52 18 28 1003.6 1003.4 0.0
30/01:00pm 17.4 10.7 7.5 52 5.1 WNW 32 46 17 25 1003.6 1003.4 0.0
30/12:42pm 17.1 10.7 6.9 51 5.1 NW 30 48 16 26 1003.9 1003.7 0.0
30/12:30pm 17.9 11.4 6.7 48 5.6 NW 30 43 16 23 1003.8 1003.6 0.0
30/12:01pm 17.9 11.8 6.7 48 5.6 NW 28 46 15 25 1004.4 1004.2 0.0
30/12:00pm 17.7 11.2 6.6 48 5.6 NW 30 46 16 25 1004.4 1004.2 0.0
30/11:30am 18.3 11.9 6.8 47 5.8 NW 30 43 16 23 1004.6 1004.4 0.0
30/11:00am 17.9 11.4 6.7 48 5.7 WNW 30 44 16 24 1005.1 1004.9 0.0
30/10:30am 16.3 10.3 7.0 54 4.7 NW 28 41 15 22 1005.4 1005.3 0.0
30/10:00am 15.5 9.4 6.8 56 4.3 WNW 28 39 15 21 1006.2 1006.0 0.0
30/09:30am 15.0 8.9 6.6 57 4.1 WNW 28 48 15 26 1006.5 1006.3 0.0
30/09:22am 14.7 8.2 6.5 58 4.0 WNW 30 48 16 26 1006.5 1006.3 0.0
30/09:00am 14.0 7.5 6.6 61 3.6 WNW 30 39 16 21 1006.5 1006.3 0.0
30/08:30am 12.6 8.0 6.6 67 2.9 WNW 20 37 11 20 1006.6 1006.4 0.0
30/08:00am 10.0 6.7 6.3 78 1.8 NNW 13 17 7 9 1007.0 1006.8 0.0
30/07:30am 8.2 4.9 6.3 88 0.9 N 13 17 7 9 1007.2 1007.0 0.0
30/07:00am 6.5 3.7 5.3 92 0.5 N 9 11 5 6 1007.6 1007.4 0.0
30/06:30am 4.6 1.5 3.4 92 0.5 N 9 11 5 6 1007.6 1007.4 0.0
30/06:00am 4.0 1.1 2.7 91 0.5 N 7 9 4 5 1007.7 1007.5 0.0
30/05:30am 4.0 1.1 2.7 91 0.5 N 7 11 4 6 1007.9 1007.7 0.0
30/05:00am 3.2 0.2 1.9 91 0.5 NNE 7 9 4 5 1008.1 1007.9 0.0
30/04:30am 2.4 -0.6 0.9 90 0.6 N 6 7 3 4 1008.2 1008.1 0.0
30/04:00am 1.5 -1.9 -0.3 88 0.7 NNW 7 7 4 4 1008.4 1008.3 0.0
30/03:30am 2.1 -1.0 0.2 87 0.7 N 6 7 3 4 1008.1 1007.9 0.0
30/03:00am 2.2 0.2 0.1 86 0.8 CALM 0 0 0 0 1008.6 1008.5 0.0
30/02:30am 2.3 0.3 0.0 85 0.9 CALM 0 0 0 0 1009.1 1009.0 0.0
30/02:00am 3.2 1.3 0.8 84 0.9 CALM 0 0 0 0 1009.0 1008.9 0.0
30/01:30am 3.4 1.6 1.0 84 0.9 CALM 0 0 0 0 1009.8 1009.6 0.0
30/01:00am 2.7 0.8 0.3 84 0.9 CALM 0 0 0 0 1010.5 1010.3 0.0
30/12:30am 3.8 2.0 1.2 83 1.0 CALM 0 0 0 0 1010.9 1010.7 0.0
30/12:00am 4.8 3.1 2.0 82 1.1 CALM 0 0 0 0 1011.3 1011.2 0.0
 
Date/Time
WST
Temp
°C
App
Temp
°C
Dew
Point
°C
Rel
Hum
%
Delta-T
°C
Wind Press
QNH
hPa
Press
MSL
hPa
Rain since
9am
mm
Dir  Spd
km/h
Gust
km/h
Spd
kts
Gust
kts
29/11:30pm 4.7 3.0 1.7 81 1.2 CALM 0 0 0 0 1011.4 1011.3 0.0
29/11:00pm 5.3 3.6 2.0 79 1.4 CALM 0 0 0 0 1011.7 1011.6 0.0
29/10:30pm 5.7 4.1 2.4 79 1.4 CALM 0 0 0 0 1012.3 1012.2 0.0
29/10:00pm 6.7 5.1 2.6 75 1.7 CALM 0 0 0 0 1013.0 1012.9 0.0
29/09:30pm 6.8 5.1 2.1 72 2.0 CALM 0 0 0 0 1013.7 1013.5 0.0
29/09:00pm 8.7 7.2 2.9 67 2.5 CALM 0 0 0 0 1013.6 1013.4 0.0
29/08:30pm 8.4 6.1 2.6 67 2.5 N 4 7 2 4 1013.9 1013.7 0.0
29/08:00pm 9.4 7.9 3.2 65 2.7 CALM 0 0 0 0 1013.9 1013.7 0.0
29/07:30pm 10.3 8.9 3.3 62 3.1 CALM 0 0 0 0 1013.9 1013.7 0.0
29/07:00pm 11.2 9.8 3.3 58 3.5 CALM 0 0 0 0 1013.7 1013.5 0.0
29/06:30pm 13.2 10.6 3.0 50 4.6 NNE 6 9 3 5 1013.7 1013.5 0.0
29/06:00pm 14.1 10.8 2.7 46 5.1 N 9 13 5 7 1013.8 1013.6 0.0
29/05:30pm 16.5 12.6 1.0 35 6.9 N 11 15 6 8 1014.1 1013.9 0.0
29/05:00pm 17.5 13.9 0.6 32 7.5 N 9 17 5 9 1014.4 1014.3 0.0
29/04:30pm 17.4 13.4 0.6 32 7.5 N 11 19 6 10 1014.4 1014.3 0.0
29/04:00pm 17.8 13.9 1.3 33 7.5 N 11 17 6 9 1014.8 1014.7 0.0
29/03:30pm 18.2 13.7 2.1 34 7.4 N 15 28 8 15 1015.5 1015.4 0.0
29/03:00pm 17.5 13.2 1.1 33 7.4 NNW 13 24 7 13 1016.0 1015.9 0.0
29/02:30pm 17.2 13.4 2.0 36 6.9 NNE 11 20 6 11 1016.5 1016.4 0.0
29/02:00pm 16.2 12.2 2.6 40 6.2 NNE 13 24 7 13 1017.4 1017.3 0.0
29/01:30pm 15.9 12.5 1.6 38 6.4 NW 9 19 5 10 1018.2 1018.1 0.0
29/01:00pm 15.4 11.7 2.2 41 5.9 NW 11 20 6 11 1018.8 1018.7 0.0
29/12:30pm 14.5 10.8 2.1 43 5.5 N 11 24 6 13 1019.2 1019.1 0.0
29/12:00pm 13.4 10.1 2.3 47 4.9 ENE 9 17 5 9 1019.6 1019.5 0.0
29/11:30am 13.0 9.8 2.8 50 4.6 NE 9 19 5 10 1020.3 1020.3 0.0
29/11:00am 11.8 8.1 2.5 53 4.1 N 11 22 6 12 1021.0 1020.9 0.0
29/10:30am 11.2 7.8 2.0 53 4.0 N 9 19 5 10 1021.6 1021.5 0.0
29/10:00am 10.8 7.2 2.9 58 3.5 NNW 11 20 6 11 1021.9 1021.8 0.0
29/09:30am 10.6 7.4 3.2 60 3.3 NE 9 13 5 7 1022.4 1022.3 0.0
29/09:00am 9.5 5.5 2.6 62 3.0 NE 13 19 7 10 1022.3 1022.2 0.0
29/08:30am 8.2 4.1 2.2 66 2.5 NE 13 22 7 12 1022.5 1022.4 0.0
29/08:00am 7.8 4.1 2.1 67 2.4 NE 11 19 6 10 1022.4 1022.3 0.0
29/07:30am 7.4 4.2 3.1 74 1.8 NE 9 13 5 7 1022.3 1022.2 0.0
29/07:00am 6.2 3.7 4.7 90 0.7 ENE 7 9 4 5 1022.0 1021.9 0.0
29/06:30am 3.2 1.5 2.0 92 0.5 CALM 0 0 0 0 1022.1 1022.0 0.0
29/06:00am 2.9 0.4 1.7 92 0.5 WSW 4 9 2 5 1022.2 1022.1 0.0
29/05:30am 3.0 0.2 2.0 93 0.4 N 6 7 3 4 1022.2 1022.1 0.0
29/05:00am 2.6 -0.3 1.4 92 0.5 N 6 9 3 5 1022.0 1021.9 0.0
29/04:30am 2.4 -0.5 1.2 92 0.5 NNW 6 9 3 5 1022.0 1021.9 0.0
29/04:00am 2.3 0.1 1.1 92 0.5 N 2 7 1 4 1021.8 1021.7 0.0
29/03:30am 1.8 -0.1 0.6 92 0.5 CALM 0 0 0 0 1021.9 1021.8 0.0
29/03:00am 1.5 -0.4 0.3 92 0.4 CALM 0 0 0 0 1022.2 1022.1 0.0
29/02:30am 1.2 -1.9 0.0 92 0.4 NW 6 7 3 4 1022.6 1022.5 0.0
29/02:00am 0.8 -1.3 -0.5 91 0.5 CALM 0 0 0 0 1022.6 1022.5 0.0
29/01:30am 1.6 -1.5 0.1 90 0.6 SE 6 7 3 4 1022.5 1022.4 0.0
29/01:00am 2.1 0.2 0.5 89 0.6 CALM 0 4 0 2 1022.8 1022.7 0.0
29/12:30am 2.2 -0.1 0.4 88 0.7 SE 2 6 1 3 1023.0 1022.9 0.0
29/12:00am 2.2 -0.5 0.4 88 0.7 SSE 4 7 2 4 1023.2 1023.2 0.0
 
Date/Time
WST
Temp
°C
App
Temp
°C
Dew
Point
°C
Rel
Hum
%
Delta-T
°C
Wind Press
QNH
hPa
Press
MSL
hPa
Rain since
9am
mm
Dir  Spd
km/h
Gust
km/h
Spd
kts
Gust
kts
28/11:30pm 2.4 0.5 0.5 87 0.7 CALM 0 0 0 0 1023.4 1023.4 0.0
28/11:00pm 3.0 1.2 0.9 86 0.8 CALM 0 0 0 0 1023.4 1023.4 0.0
28/10:30pm 3.5 1.7 1.2 85 0.9 CALM 0 0 0 0 1023.8 1023.8 0.0
28/10:00pm 4.0 1.5 1.4 83 1.0 SE 4 7 2 4 1023.9 1023.9 0.0
28/09:30pm 4.5 1.4 1.5 81 1.2 SE 7 11 4 6 1023.9 1023.9 0.0
28/09:00pm 4.7 1.8 1.6 80 1.2 ESE 6 9 3 5 1023.9 1023.9 0.0
28/08:30pm 5.1 2.0 1.2 76 1.6 SE 7 9 4 5 1023.7 1023.7 0.0
28/08:00pm 5.9 2.8 1.2 72 1.9 SE 7 13 4 7 1023.6 1023.6 0.0
28/07:30pm 7.0 3.9 1.3 67 2.3 SSE 7 9 4 5 1023.3 1023.3 0.0
28/07:00pm 8.2 4.7 1.1 61 2.9 S 9 15 5 8 1023.0 1022.9 0.0
28/06:30pm 9.2 4.9 1.1 57 3.4 S 13 20 7 11 1022.6 1022.5 0.0

Other Formats:

Comma delimited format used in spreadsheet applications
http://www.bom.gov.au/fwo/IDW60801/IDW60801.95637.axf

JavaScript Object Notation format (JSON) in row-major order
http://www.bom.gov.au/fwo/IDW60801/IDW60801.95637.json